sensor_id;sensor_type;location;lat;lon;timestamp;pressure;altitude;pressure_sealevel;temperature;humidity
30897;BME280;64229;52.246;21.054;2023-12-14T00:00:07;99539.88;;;2.50;100.00
30897;BME280;64229;52.246;21.054;2023-12-14T00:02:33;99546.41;;;2.48;100.00
30897;BME280;64229;52.246;21.054;2023-12-14T00:04:58;99549.38;;;2.51;100.00
30897;BME280;64229;52.246;21.054;2023-12-14T00:07:24;99546.63;;;2.46;100.00
30897;BME280;64229;52.246;21.054;2023-12-14T00:09:49;99546.97;;;2.50;100.00
30897;BME280;64229;52.246;21.054;2023-12-14T00:12:14;99551.22;;;2.51;100.00
30897;BME280;64229;52.246;21.054;2023-12-14T00:14:40;99555.91;;;2.49;100.00
30897;BME280;64229;52.246;21.054;2023-12-14T00:17:05;99555.78;;;2.44;100.00
30897;BME280;64229;52.246;21.054;2023-12-14T00:19:31;99557.63;;;2.43;100.00
30897;BME280;64229;52.246;21.054;2023-12-14T00:21:56;99564.16;;;2.41;100.00
30897;BME280;64229;52.246;21.054;2023-12-14T00:24:21;99561.75;;;2.39;100.00
30897;BME280;64229;52.246;21.054;2023-12-14T00:26:47;99561.84;;;2.32;100.00
30897;BME280;64229;52.246;21.054;2023-12-14T00:29:12;99562.88;;;2.31;100.00
30897;BME280;64229;52.246;21.054;2023-12-14T00:31:38;99571.34;;;2.33;100.00
30897;BME280;64229;52.246;21.054;2023-12-14T00:34:03;99573.19;;;2.33;100.00
30897;BME280;64229;52.246;21.054;2023-12-14T00:36:28;99576.03;;;2.31;100.00
30897;BME280;64229;52.246;21.054;2023-12-14T00:38:54;99582.81;;;2.27;100.00
30897;BME280;64229;52.246;21.054;2023-12-14T00:41:20;99582.81;;;2.27;100.00
30897;BME280;64229;52.246;21.054;2023-12-14T00:43:46;99565.41;;;2.15;100.00
30897;BME280;64229;52.246;21.054;2023-12-14T00:46:11;99562.88;;;2.20;100.00
30897;BME280;64229;52.246;21.054;2023-12-14T00:48:37;99584.41;;;2.28;100.00
30897;BME280;64229;52.246;21.054;2023-12-14T00:51:02;99571.00;;;2.18;100.00
30897;BME280;64229;52.246;21.054;2023-12-14T00:53:28;99579.69;;;2.19;100.00
30897;BME280;64229;52.246;21.054;2023-12-14T00:55:53;99588.31;;;2.26;100.00
30897;BME280;64229;52.246;21.054;2023-12-14T00:58:18;99583.69;;;2.21;100.00
30897;BME280;64229;52.246;21.054;2023-12-14T01:00:44;99585.31;;;2.22;100.00
30897;BME280;64229;52.246;21.054;2023-12-14T01:03:09;99593.88;;;2.18;100.00
30897;BME280;64229;52.246;21.054;2023-12-14T01:05:34;99599.06;;;2.24;100.00
30897;BME280;64229;52.246;21.054;2023-12-14T01:08:00;99598.03;;;2.25;100.00
30897;BME280;64229;52.246;21.054;2023-12-14T01:10:25;99585.91;;;2.24;100.00
30897;BME280;64229;52.246;21.054;2023-12-14T01:12:50;99591.16;;;2.24;100.00
30897;BME280;64229;52.246;21.054;2023-12-14T01:15:16;99594.47;;;2.20;100.00
30897;BME280;64229;52.246;21.054;2023-12-14T01:17:41;99596.53;;;2.18;100.00
30897;BME280;64229;52.246;21.054;2023-12-14T01:20:07;99594.13;;;2.16;100.00
30897;BME280;64229;52.246;21.054;2023-12-14T01:22:33;99606.25;;;2.17;100.00
30897;BME280;64229;52.246;21.054;2023-12-14T01:24:59;99600.19;;;2.17;100.00
30897;BME280;64229;52.246;21.054;2023-12-14T01:27:24;99601.34;;;2.21;100.00
30897;BME280;64229;52.246;21.054;2023-12-14T01:29:50;99593.09;;;2.17;100.00
30897;BME280;64229;52.246;21.054;2023-12-14T01:32:15;99595.16;;;2.15;100.00
30897;BME280;64229;52.246;21.054;2023-12-14T01:34:40;99584.84;;;2.14;100.00
30897;BME280;64229;52.246;21.054;2023-12-14T01:37:06;99588.97;;;2.21;100.00
30897;BME280;64229;52.246;21.054;2023-12-14T01:39:32;99590.69;;;2.16;100.00
30897;BME280;64229;52.246;21.054;2023-12-14T01:41:57;99591.59;;;2.21;100.00
30897;BME280;64229;52.246;21.054;2023-12-14T01:44:22;99563.75;;;2.02;100.00
30897;BME280;64229;52.246;21.054;2023-12-14T01:46:48;99576.03;;;2.08;100.00
30897;BME280;64229;52.246;21.054;2023-12-14T01:49:13;99595.72;;;2.17;100.00
30897;BME280;64229;52.246;21.054;2023-12-14T01:51:38;99590.91;;;2.14;100.00
30897;BME280;64229;52.246;21.054;2023-12-14T01:54:04;99593.66;;;2.19;100.00
30897;BME280;64229;52.246;21.054;2023-12-14T01:56:29;99583.59;;;2.16;100.00
30897;BME280;64229;52.246;21.054;2023-12-14T01:58:54;99589.09;;;2.15;100.00
30897;BME280;64229;52.246;21.054;2023-12-14T02:01:40;99580.81;;;2.11;100.00
30897;BME280;64229;52.246;21.054;2023-12-14T02:04:06;99558.47;;;2.02;100.00
30897;BME280;64229;52.246;21.054;2023-12-14T02:06:32;99576.16;;;2.13;100.00
30897;BME280;64229;52.246;21.054;2023-12-14T02:08:58;99573.38;;;2.08;100.00
30897;BME280;64229;52.246;21.054;2023-12-14T02:11:23;99571.56;;;2.09;100.00
30897;BME280;64229;52.246;21.054;2023-12-14T02:13:48;99556.53;;;1.97;100.00
30897;BME280;64229;52.246;21.054;2023-12-14T02:16:14;99579.00;;;2.12;100.00
30897;BME280;64229;52.246;21.054;2023-12-14T02:18:40;99569.50;;;2.11;100.00
30897;BME280;64229;52.246;21.054;2023-12-14T02:21:05;99558.84;;;2.06;100.00
30897;BME280;64229;52.246;21.054;2023-12-14T02:23:31;99575.13;;;2.14;100.00
30897;BME280;64229;52.246;21.054;2023-12-14T02:25:56;99566.44;;;2.14;100.00
30897;BME280;64229;52.246;21.054;2023-12-14T02:28:22;99556.47;;;2.16;100.00
30897;BME280;64229;52.246;21.054;2023-12-14T02:30:47;99572.25;;;2.16;100.00
30897;BME280;64229;52.246;21.054;2023-12-14T02:33:12;99569.41;;;2.17;100.00
30897;BME280;64229;52.246;21.054;2023-12-14T02:35:38;99566.06;;;2.10;100.00
30897;BME280;64229;52.246;21.054;2023-12-14T02:38:03;99557.03;;;2.06;100.00
30897;BME280;64229;52.246;21.054;2023-12-14T02:40:28;99571.31;;;2.10;100.00
30897;BME280;64229;52.246;21.054;2023-12-14T02:42:54;99570.53;;;2.10;100.00
30897;BME280;64229;52.246;21.054;2023-12-14T02:45:19;99575.44;;;2.06;100.00
30897;BME280;64229;52.246;21.054;2023-12-14T02:47:44;99571.06;;;2.00;100.00
30897;BME280;64229;52.246;21.054;2023-12-14T02:50:12;99571.06;;;2.00;100.00
30897;BME280;64229;52.246;21.054;2023-12-14T02:52:38;99565.59;;;2.01;100.00
30897;BME280;64229;52.246;21.054;2023-12-14T02:55:03;99568.22;;;2.01;100.00
30897;BME280;64229;52.246;21.054;2023-12-14T02:57:29;99568.81;;;2.03;100.00
30897;BME280;64229;52.246;21.054;2023-12-14T02:59:54;99574.75;;;1.99;100.00
30897;BME280;64229;52.246;21.054;2023-12-14T03:02:20;99580.81;;;1.99;100.00
30897;BME280;64229;52.246;21.054;2023-12-14T03:04:45;99582.88;;;1.97;100.00
30897;BME280;64229;52.246;21.054;2023-12-14T03:07:10;99584.34;;;1.93;100.00
30897;BME280;64229;52.246;21.054;2023-12-14T03:09:39;99590.41;;;1.94;100.00
30897;BME280;64229;52.246;21.054;2023-12-14T03:12:06;99590.84;;;1.91;100.00
30897;BME280;64229;52.246;21.054;2023-12-14T03:14:33;99597.94;;;1.90;100.00
30897;BME280;64229;52.246;21.054;2023-12-14T03:16:58;99594.28;;;1.91;100.00
30897;BME280;64229;52.246;21.054;2023-12-14T03:19:24;99599.78;;;1.90;100.00
30897;BME280;64229;52.246;21.054;2023-12-14T03:21:49;99600.38;;;1.92;100.00
30897;BME280;64229;52.246;21.054;2023-12-14T03:24:15;99595.53;;;1.89;100.00
30897;BME280;64229;52.246;21.054;2023-12-14T03:26:40;99604.81;;;1.91;100.00
30897;BME280;64229;52.246;21.054;2023-12-14T03:29:05;99619.78;;;1.91;100.00
30897;BME280;64229;52.246;21.054;2023-12-14T03:31:31;99619.22;;;1.89;100.00
30897;BME280;64229;52.246;21.054;2023-12-14T03:33:56;99618.66;;;1.87;100.00
30897;BME280;64229;52.246;21.054;2023-12-14T03:36:21;99599.97;;;1.77;100.00
30897;BME280;64229;52.246;21.054;2023-12-14T03:38:51;99627.25;;;1.94;100.00
30897;BME280;64229;52.246;21.054;2023-12-14T03:41:16;99628.41;;;1.98;100.00
30897;BME280;64229;52.246;21.054;2023-12-14T03:43:41;99626.47;;;1.93;100.00
30897;BME280;64229;52.246;21.054;2023-12-14T03:46:07;99628.28;;;1.93;100.00
30897;BME280;64229;52.246;21.054;2023-12-14T03:48:33;99627.25;;;1.94;100.00
30897;BME280;64229;52.246;21.054;2023-12-14T03:51:02;99620.75;;;1.96;100.00
30897;BME280;64229;52.246;21.054;2023-12-14T03:53:28;99626.22;;;1.95;100.00
30897;BME280;64229;52.246;21.054;2023-12-14T03:55:54;99623.44;;;1.90;100.00
30897;BME280;64229;52.246;21.054;2023-12-14T03:58:19;99630.53;;;1.89;100.00
30897;BME280;64229;52.246;21.054;2023-12-14T04:00:45;99632.94;;;1.91;100.00
30897;BME280;64229;52.246;21.054;2023-12-14T04:03:10;99631.81;;;1.87;100.00
30897;BME280;64229;52.246;21.054;2023-12-14T04:05:35;99634.59;;;1.92;100.00
30897;BME280;64229;52.246;21.054;2023-12-14T04:08:01;99636.25;;;1.86;100.00
30897;BME280;64229;52.246;21.054;2023-12-14T04:10:26;99638.91;;;1.86;100.00
30897;BME280;64229;52.246;21.054;2023-12-14T04:12:52;99634.97;;;1.77;100.00
30897;BME280;64229;52.246;21.054;2023-12-14T04:15:17;99644.97;;;1.87;100.00
30897;BME280;64229;52.246;21.054;2023-12-14T04:17:42;99646.34;;;1.89;100.00
30897;BME280;64229;52.246;21.054;2023-12-14T04:20:08;99640.84;;;1.91;100.00
30897;BME280;64229;52.246;21.054;2023-12-14T04:22:34;99650.38;;;1.92;100.00
30897;BME280;64229;52.246;21.054;2023-12-14T04:24:59;99649.13;;;1.94;100.00
30897;BME280;64229;52.246;21.054;2023-12-14T04:27:24;99645.22;;;1.97;100.00
30897;BME280;64229;52.246;21.054;2023-12-14T04:29:53;99647.84;;;1.97;100.00
30897;BME280;64229;52.246;21.054;2023-12-14T04:32:18;99646.91;;;1.91;100.00
30897;BME280;64229;52.246;21.054;2023-12-14T04:34:44;99646.56;;;1.88;100.00
30897;BME280;64229;52.246;21.054;2023-12-14T04:37:09;99649.19;;;1.88;100.00
30897;BME280;64229;52.246;21.054;2023-12-14T04:39:34;99640.81;;;1.79;100.00
30897;BME280;64229;52.246;21.054;2023-12-14T04:42:00;99647.66;;;1.80;100.00
30897;BME280;64229;52.246;21.054;2023-12-14T04:44:25;99663.38;;;1.87;100.00
30897;BME280;64229;52.246;21.054;2023-12-14T04:46:51;99677.91;;;1.89;100.00
30897;BME280;64229;52.246;21.054;2023-12-14T04:49:16;99667.38;;;1.89;100.00
30897;BME280;64229;52.246;21.054;2023-12-14T04:51:42;99668.78;;;1.92;100.00
30897;BME280;64229;52.246;21.054;2023-12-14T04:54:08;99679.91;;;1.94;100.00
30897;BME280;64229;52.246;21.054;2023-12-14T04:56:33;99681.72;;;1.93;100.00
30897;BME280;64229;52.246;21.054;2023-12-14T04:58:59;99682.38;;;1.89;100.00
30897;BME280;64229;52.246;21.054;2023-12-14T05:01:24;99682.03;;;1.85;100.00
30897;BME280;64229;52.246;21.054;2023-12-14T05:03:52;99679.41;;;1.85;100.00
30897;BME280;64229;52.246;21.054;2023-12-14T05:06:17;99688.91;;;1.86;100.00
30897;BME280;64229;52.246;21.054;2023-12-14T05:08:42;99691.88;;;1.90;100.00
30897;BME280;64229;52.246;21.054;2023-12-14T05:11:08;99696.56;;;1.88;100.00
30897;BME280;64229;52.246;21.054;2023-12-14T05:13:33;99698.16;;;1.89;100.00
30897;BME280;64229;52.246;21.054;2023-12-14T05:15:58;99700.38;;;1.92;100.00
30897;BME280;64229;52.246;21.054;2023-12-14T05:18:24;99708.47;;;1.90;100.00
30897;BME280;64229;52.246;21.054;2023-12-14T05:20:50;99706.63;;;1.91;100.00
30897;BME280;64229;52.246;21.054;2023-12-14T05:23:15;99710.91;;;1.92;100.00
30897;BME280;64229;52.246;21.054;2023-12-14T05:25:41;99723.59;;;1.95;100.00
30897;BME280;64229;52.246;21.054;2023-12-14T05:28:06;99718.19;;;1.90;100.00
30897;BME280;64229;52.246;21.054;2023-12-14T05:30:32;99728.13;;;1.88;100.00
30897;BME280;64229;52.246;21.054;2023-12-14T05:32:57;99719.50;;;1.81;100.00
30897;BME280;64229;52.246;21.054;2023-12-14T05:35:22;99730.19;;;1.86;100.00
30897;BME280;64229;52.246;21.054;2023-12-14T05:37:48;99733.91;;;1.78;100.00
30897;BME280;64229;52.246;21.054;2023-12-14T05:40:13;99742.31;;;1.87;100.00
30897;BME280;64229;52.246;21.054;2023-12-14T05:42:39;99743.72;;;1.89;100.00
30897;BME280;64229;52.246;21.054;2023-12-14T05:45:08;99740.28;;;1.89;100.00
30897;BME280;64229;52.246;21.054;2023-12-14T05:47:34;99745.63;;;1.82;100.00
30897;BME280;64229;52.246;21.054;2023-12-14T05:50:00;99748.97;;;1.89;100.00
30897;BME280;64229;52.246;21.054;2023-12-14T05:52:26;99762.13;;;1.89;100.00
30897;BME280;64229;52.246;21.054;2023-12-14T05:54:51;99767.97;;;1.91;100.00
30897;BME280;64229;52.246;21.054;2023-12-14T05:57:17;99753.53;;;1.82;100.00
30897;BME280;64229;52.246;21.054;2023-12-14T05:59:42;99771.03;;;1.88;100.00
30897;BME280;64229;52.246;21.054;2023-12-14T06:02:07;99769.44;;;1.87;100.00
30897;BME280;64229;52.246;21.054;2023-12-14T06:04:33;99765.06;;;1.81;100.00
30897;BME280;64229;52.246;21.054;2023-12-14T06:06:59;99788.38;;;1.96;100.00
30897;BME280;64229;52.246;21.054;2023-12-14T06:09:24;99782.53;;;1.94;100.00
30897;BME280;64229;52.246;21.054;2023-12-14T06:11:59;99789.41;;;1.95;100.00
30897;BME280;64229;52.246;21.054;2023-12-14T06:14:24;99785.59;;;1.91;100.00
30897;BME280;64229;52.246;21.054;2023-12-14T06:16:49;99797.53;;;1.93;100.00
30897;BME280;64229;52.246;21.054;2023-12-14T06:19:15;99794.72;;;1.88;100.00
30897;BME280;64229;52.246;21.054;2023-12-14T06:21:40;99809.28;;;1.91;100.00
30897;BME280;64229;52.246;21.054;2023-12-14T06:24:06;99805.03;;;1.90;100.00
30897;BME280;64229;52.246;21.054;2023-12-14T06:26:31;99812.34;;;1.88;100.00
30897;BME280;64229;52.246;21.054;2023-12-14T06:28:56;99813.72;;;1.90;100.00
30897;BME280;64229;52.246;21.054;2023-12-14T06:31:22;99813.16;;;1.88;100.00
30897;BME280;64229;52.246;21.054;2023-12-14T06:33:48;99818.63;;;1.87;100.00
30897;BME280;64229;52.246;21.054;2023-12-14T06:36:15;99816.44;;;1.84;100.00
30897;BME280;64229;52.246;21.054;2023-12-14T06:38:42;99813.81;;;1.84;100.00
30897;BME280;64229;52.246;21.054;2023-12-14T06:41:07;99825.16;;;1.84;100.00
30897;BME280;64229;52.246;21.054;2023-12-14T06:43:34;99828.38;;;1.86;100.00
30897;BME280;64229;52.246;21.054;2023-12-14T06:45:59;99820.59;;;1.91;100.00
30897;BME280;64229;52.246;21.054;2023-12-14T06:48:24;99828.13;;;1.88;100.00
30897;BME280;64229;52.246;21.054;2023-12-14T06:50:50;99823.69;;;1.88;100.00
30897;BME280;64229;52.246;21.054;2023-12-14T06:53:15;99833.63;;;1.86;100.00
30897;BME280;64229;52.246;21.054;2023-12-14T06:55:41;99823.78;;;1.82;100.00
30897;BME280;64229;52.246;21.054;2023-12-14T06:58:06;99842.19;;;1.82;100.00
30897;BME280;64229;52.246;21.054;2023-12-14T07:00:36;99839.16;;;1.78;100.00
30897;BME280;64229;52.246;21.054;2023-12-14T07:03:01;99850.28;;;1.80;100.00
30897;BME280;64229;52.246;21.054;2023-12-14T07:05:27;99846.66;;;1.81;100.00
30897;BME280;64229;52.246;21.054;2023-12-14T07:07:52;99849.06;;;1.83;100.00
30897;BME280;64229;52.246;21.054;2023-12-14T07:10:18;99844.22;;;1.80;100.00
30897;BME280;64229;52.246;21.054;2023-12-14T07:12:43;99849.84;;;1.83;100.00
30897;BME280;64229;52.246;21.054;2023-12-14T07:15:09;99854.47;;;1.88;100.00
30897;BME280;64229;52.246;21.054;2023-12-14T07:17:34;99853.88;;;1.86;100.00
30897;BME280;64229;52.246;21.054;2023-12-14T07:19:59;99852.84;;;1.87;100.00
30897;BME280;64229;52.246;21.054;2023-12-14T07:22:25;99863.16;;;1.88;100.00
30897;BME280;64229;52.246;21.054;2023-12-14T07:24:51;99838.38;;;1.78;100.00
30897;BME280;64229;52.246;21.054;2023-12-14T07:27:16;99852.06;;;1.86;100.00
30897;BME280;64229;52.246;21.054;2023-12-14T07:29:41;99857.31;;;1.86;100.00
30897;BME280;64229;52.246;21.054;2023-12-14T07:32:07;99848.09;;;1.77;100.00
30897;BME280;64229;52.246;21.054;2023-12-14T07:34:32;99864.63;;;1.84;100.00
30897;BME280;64229;52.246;21.054;2023-12-14T07:36:57;99864.63;;;1.84;100.00
30897;BME280;64229;52.246;21.054;2023-12-14T07:39:23;99862.78;;;1.85;100.00
30897;BME280;64229;52.246;21.054;2023-12-14T07:41:48;99862.00;;;1.84;100.00
30897;BME280;64229;52.246;21.054;2023-12-14T07:44:13;99864.41;;;1.86;100.00
30897;BME280;64229;52.246;21.054;2023-12-14T07:46:39;99864.09;;;1.76;100.00
30897;BME280;64229;52.246;21.054;2023-12-14T07:49:07;99863.25;;;1.82;100.00
30897;BME280;64229;52.246;21.054;2023-12-14T07:51:32;99865.25;;;1.80;100.00
30897;BME280;64229;52.246;21.054;2023-12-14T07:53:57;99871.13;;;1.82;100.00
30897;BME280;64229;52.246;21.054;2023-12-14T07:56:23;99873.75;;;1.82;100.00
30897;BME280;64229;52.246;21.054;2023-12-14T07:58:50;99881.34;;;1.90;100.00
30897;BME280;64229;52.246;21.054;2023-12-14T08:01:16;99885.41;;;1.92;100.00
30897;BME280;64229;52.246;21.054;2023-12-14T08:03:41;99888.16;;;1.97;100.00
30897;BME280;64229;52.246;21.054;2023-12-14T08:06:06;99896.28;;;1.96;100.00
30897;BME280;64229;52.246;21.054;2023-12-14T08:08:32;99901.78;;;1.94;100.00
30897;BME280;64229;52.246;21.054;2023-12-14T08:10:57;99901.78;;;1.94;100.00
30897;BME280;64229;52.246;21.054;2023-12-14T08:13:22;99908.66;;;1.95;100.00
30897;BME280;64229;52.246;21.054;2023-12-14T08:15:48;99917.13;;;1.97;100.00
30897;BME280;64229;52.246;21.054;2023-12-14T08:18:13;99916.47;;;2.02;100.00
30897;BME280;64229;52.246;21.054;2023-12-14T08:20:38;99909.41;;;2.02;100.00
30897;BME280;64229;52.246;21.054;2023-12-14T08:23:04;99919.25;;;2.07;100.00
30897;BME280;64229;52.246;21.054;2023-12-14T08:25:29;99920.00;;;2.14;100.00
30897;BME280;64229;52.246;21.054;2023-12-14T08:27:55;99926.78;;;2.22;100.00
30897;BME280;64229;52.246;21.054;2023-12-14T08:30:21;99926.38;;;2.25;100.00
30897;BME280;64229;52.246;21.054;2023-12-14T08:32:46;99936.09;;;2.24;100.00
30897;BME280;64229;52.246;21.054;2023-12-14T08:35:11;99936.09;;;2.24;100.00
30897;BME280;64229;52.246;21.054;2023-12-14T08:37:37;99949.28;;;2.24;100.00
30897;BME280;64229;52.246;21.054;2023-12-14T08:40:03;99951.28;;;2.22;100.00
30897;BME280;64229;52.246;21.054;2023-12-14T08:42:28;99950.28;;;2.23;100.00
30897;BME280;64229;52.246;21.054;2023-12-14T08:44:54;99956.38;;;2.24;100.00
30897;BME280;64229;52.246;21.054;2023-12-14T08:47:19;99948.66;;;2.22;100.00
30897;BME280;64229;52.246;21.054;2023-12-14T08:49:45;99959.00;;;2.24;100.00
30897;BME280;64229;52.246;21.054;2023-12-14T08:52:10;99969.72;;;2.22;100.00
30897;BME280;64229;52.246;21.054;2023-12-14T08:54:36;99973.25;;;2.16;100.00
30897;BME280;64229;52.246;21.054;2023-12-14T08:57:02;99974.63;;;2.19;100.00
30897;BME280;64229;52.246;21.054;2023-12-14T08:59:27;99975.44;;;2.19;100.00
30897;BME280;64229;52.246;21.054;2023-12-14T09:01:53;99974.28;;;2.15;100.00
30897;BME280;64229;52.246;21.054;2023-12-14T09:04:18;99974.69;;;2.12;100.00
30897;BME280;64229;52.246;21.054;2023-12-14T09:06:43;99986.91;;;2.07;100.00
30897;BME280;64229;52.246;21.054;2023-12-14T09:09:10;99982.94;;;1.97;100.00
30897;BME280;64229;52.246;21.054;2023-12-14T09:11:35;99990.78;;;2.04;100.00
30897;BME280;64229;52.246;21.054;2023-12-14T09:14:02;99991.13;;;2.08;100.00
30897;BME280;64229;52.246;21.054;2023-12-14T09:16:27;99994.78;;;2.07;100.00
30897;BME280;64229;52.246;21.054;2023-12-14T09:18:53;99991.13;;;2.08;100.00
30897;BME280;64229;52.246;21.054;2023-12-14T09:21:18;99991.94;;;2.08;100.00
30897;BME280;64229;52.246;21.054;2023-12-14T09:23:43;99992.13;;;2.13;100.00
30897;BME280;64229;52.246;21.054;2023-12-14T09:26:09;99997.56;;;2.12;100.00
30897;BME280;64229;52.246;21.054;2023-12-14T09:28:35;100007.75;;;2.08;100.00
30897;BME280;64229;52.246;21.054;2023-12-14T09:31:01;99998.00;;;2.09;100.00
30897;BME280;64229;52.246;21.054;2023-12-14T09:33:26;100005.31;;;2.07;100.00
30897;BME280;64229;52.246;21.054;2023-12-14T09:35:51;100008.19;;;2.05;100.00
30897;BME280;64229;52.246;21.054;2023-12-14T09:38:17;100009.13;;;2.11;100.00
30897;BME280;64229;52.246;21.054;2023-12-14T09:40:44;100005.09;;;2.08;100.00
30897;BME280;64229;52.246;21.054;2023-12-14T09:43:10;100012.19;;;2.08;100.00
30897;BME280;64229;52.246;21.054;2023-12-14T09:45:36;100005.69;;;2.10;100.00
30897;BME280;64229;52.246;21.054;2023-12-14T09:48:03;100004.25;;;2.14;100.00
30897;BME280;64229;52.246;21.054;2023-12-14T09:50:30;100013.69;;;2.22;100.00
30897;BME280;64229;52.246;21.054;2023-12-14T09:52:56;100005.59;;;2.23;100.00
30897;BME280;64229;52.246;21.054;2023-12-14T09:55:22;99998.91;;;2.21;100.00
30897;BME280;64229;52.246;21.054;2023-12-14T09:57:47;100007.19;;;2.24;100.00
30897;BME280;64229;52.246;21.054;2023-12-14T10:00:13;99999.09;;;2.26;100.00
30897;BME280;64229;52.246;21.054;2023-12-14T10:02:57;100005.25;;;2.38;100.00
30897;BME280;64229;52.246;21.054;2023-12-14T10:05:22;100008.63;;;2.45;100.00
30897;BME280;64229;52.246;21.054;2023-12-14T10:07:47;99983.16;;;2.39;100.00
30897;BME280;64229;52.246;21.054;2023-12-14T10:10:14;100006.06;;;2.57;100.00
30897;BME280;64229;52.246;21.054;2023-12-14T10:12:55;100004.38;;;2.63;100.00
30897;BME280;64229;52.246;21.054;2023-12-14T10:15:20;100004.66;;;2.73;100.00
30897;BME280;64229;52.246;21.054;2023-12-14T10:17:51;100011.94;;;2.77;100.00
30897;BME280;64229;52.246;21.054;2023-12-14T10:20:22;100003.56;;;2.80;100.00
30897;BME280;64229;52.246;21.054;2023-12-14T10:22:49;100007.94;;;2.86;100.00
30897;BME280;64229;52.246;21.054;2023-12-14T10:25:14;100012.28;;;2.81;100.00
30897;BME280;64229;52.246;21.054;2023-12-14T10:27:40;100008.69;;;2.75;100.00
30897;BME280;64229;52.246;21.054;2023-12-14T10:30:08;100019.69;;;2.90;100.00
30897;BME280;64229;52.246;21.054;2023-12-14T10:32:37;100023.28;;;2.78;100.00
30897;BME280;64229;52.246;21.054;2023-12-14T10:35:02;100018.28;;;2.70;100.00
30897;BME280;64229;52.246;21.054;2023-12-14T10:37:28;100022.75;;;2.69;100.00
30897;BME280;64229;52.246;21.054;2023-12-14T10:39:55;100032.03;;;2.72;100.00
30897;BME280;64229;52.246;21.054;2023-12-14T10:42:21;100033.94;;;2.83;100.00
30897;BME280;64229;52.246;21.054;2023-12-14T10:44:50;100037.69;;;2.75;100.00
30897;BME280;64229;52.246;21.054;2023-12-14T10:47:19;100042.22;;;2.68;100.00
30897;BME280;64229;52.246;21.054;2023-12-14T10:49:46;100034.91;;;2.70;100.00
30897;BME280;64229;52.246;21.054;2023-12-14T10:52:14;100042.81;;;2.70;100.00
30897;BME280;64229;52.246;21.054;2023-12-14T10:54:40;100049.75;;;2.65;100.00
30897;BME280;64229;52.246;21.054;2023-12-14T10:57:06;100040.09;;;2.58;100.00
30897;BME280;64229;52.246;21.054;2023-12-14T10:59:34;100054.06;;;2.59;100.00
30897;BME280;64229;52.246;21.054;2023-12-14T11:02:07;100058.09;;;2.61;100.00
30897;BME280;64229;52.246;21.054;2023-12-14T11:04:55;100055.97;;;2.70;100.00
30897;BME280;64229;52.246;21.054;2023-12-14T11:07:43;100057.94;;;2.75;100.00
30897;BME280;64229;52.246;21.054;2023-12-14T11:10:12;100060.38;;;2.76;100.00
30897;BME280;64229;52.246;21.054;2023-12-14T11:13:01;100062.31;;;2.87;100.00
30897;BME280;64229;52.246;21.054;2023-12-14T11:15:33;100066.31;;;2.72;100.00
30897;BME280;64229;52.246;21.054;2023-12-14T11:23:17;100083.19;;;2.64;100.00
30897;BME280;64229;52.246;21.054;2023-12-14T11:25:43;100073.00;;;2.49;100.00
30897;BME280;64229;52.246;21.054;2023-12-14T11:28:09;100086.31;;;2.54;100.00
30897;BME280;64229;52.246;21.054;2023-12-14T11:30:36;100086.75;;;2.51;100.00
30897;BME280;64229;52.246;21.054;2023-12-14T11:33:02;100097.47;;;2.56;100.00
30897;BME280;64229;52.246;21.054;2023-12-14T11:35:28;100084.31;;;2.56;100.00
30897;BME280;64229;52.246;21.054;2023-12-14T11:37:53;100095.03;;;2.55;100.00
30897;BME280;64229;52.246;21.054;2023-12-14T11:40:20;100089.34;;;2.58;100.00
30897;BME280;64229;52.246;21.054;2023-12-14T11:42:58;100097.09;;;2.53;100.00
30897;BME280;64229;52.246;21.054;2023-12-14T11:45:24;100099.50;;;2.54;100.00
30897;BME280;64229;52.246;21.054;2023-12-14T11:47:51;100095.44;;;2.58;100.00
30897;BME280;64229;52.246;21.054;2023-12-14T11:50:16;100099.81;;;2.65;100.00
30897;BME280;64229;52.246;21.054;2023-12-14T11:52:42;100107.56;;;2.59;100.00
30897;BME280;64229;52.246;21.054;2023-12-14T11:55:12;100082.78;;;2.42;100.00
30897;BME280;64229;52.246;21.054;2023-12-14T11:57:39;100106.00;;;2.52;100.00
30897;BME280;64229;52.246;21.054;2023-12-14T12:00:05;100116.28;;;2.60;100.00
30897;BME280;64229;52.246;21.054;2023-12-14T12:02:32;100111.47;;;2.57;100.00
30897;BME280;64229;52.246;21.054;2023-12-14T12:04:57;100106.31;;;2.62;100.00
30897;BME280;64229;52.246;21.054;2023-12-14T12:07:23;100117.41;;;2.71;100.00
30897;BME280;64229;52.246;21.054;2023-12-14T12:09:48;100111.69;;;2.74;100.00
30897;BME280;64229;52.246;21.054;2023-12-14T12:12:13;100109.19;;;2.60;100.00
30897;BME280;64229;52.246;21.054;2023-12-14T12:14:39;100120.88;;;2.65;100.00
30897;BME280;64229;52.246;21.054;2023-12-14T12:17:06;100124.94;;;2.67;100.00
30897;BME280;64229;52.246;21.054;2023-12-14T12:19:35;100131.06;;;2.61;100.00
30897;BME280;64229;52.246;21.054;2023-12-14T12:22:02;100134.16;;;2.58;100.00
30897;BME280;64229;52.246;21.054;2023-12-14T12:24:27;100124.22;;;2.53;100.00
30897;BME280;64229;52.246;21.054;2023-12-14T12:26:54;100126.88;;;2.53;100.00
30897;BME280;64229;52.246;21.054;2023-12-14T12:29:20;100134.41;;;2.50;100.00
30897;BME280;64229;52.246;21.054;2023-12-14T12:31:45;100115.50;;;2.35;100.00
30897;BME280;64229;52.246;21.054;2023-12-14T12:34:11;100136.91;;;2.45;100.00
30897;BME280;64229;52.246;21.054;2023-12-14T12:36:37;100143.78;;;2.46;100.00
30897;BME280;64229;52.246;21.054;2023-12-14T12:39:03;100142.97;;;2.45;100.00
30897;BME280;64229;52.246;21.054;2023-12-14T12:41:30;100149.66;;;2.41;100.00
30897;BME280;64229;52.246;21.054;2023-12-14T12:43:56;100142.41;;;2.37;100.00
30897;BME280;64229;52.246;21.054;2023-12-14T12:46:22;100155.38;;;2.38;100.00